sensor_id;sensor_type;location;lat;lon;timestamp;pressure;altitude;pressure_sealevel;temperature;humidity
76592;BME280;65481;47.600;19.682;2024-03-08T00:00:58;100594.38;;;5.82;100.00
76592;BME280;65481;47.600;19.682;2024-03-08T00:05:59;100599.25;;;5.85;100.00
76592;BME280;65481;47.600;19.682;2024-03-08T00:10:59;100596.41;;;5.86;100.00
76592;BME280;65481;47.600;19.682;2024-03-08T00:16:00;100601.97;;;5.76;100.00
76592;BME280;65481;47.600;19.682;2024-03-08T00:21:00;100601.53;;;5.73;100.00
76592;BME280;65481;47.600;19.682;2024-03-08T00:26:01;100600.22;;;5.62;100.00
76592;BME280;65481;47.600;19.682;2024-03-08T00:31:03;100591.72;;;5.60;100.00
76592;BME280;65481;47.600;19.682;2024-03-08T00:36:04;100591.88;;;5.52;100.00
76592;BME280;65481;47.600;19.682;2024-03-08T00:41:05;100584.75;;;5.45;100.00
76592;BME280;65481;47.600;19.682;2024-03-08T00:46:05;100575.63;;;5.41;100.00
76592;BME280;65481;47.600;19.682;2024-03-08T00:51:06;100570.53;;;5.33;100.00
76592;BME280;65481;47.600;19.682;2024-03-08T00:56:07;100574.88;;;5.26;100.00
76592;BME280;65481;47.600;19.682;2024-03-08T01:01:10;100576.47;;;5.27;100.00
76592;BME280;65481;47.600;19.682;2024-03-08T01:06:10;100569.00;;;5.24;100.00
76592;BME280;65481;47.600;19.682;2024-03-08T01:11:13;100580.22;;;5.18;100.00
76592;BME280;65481;47.600;19.682;2024-03-08T01:16:14;100576.59;;;5.19;100.00
76592;BME280;65481;47.600;19.682;2024-03-08T01:21:14;100572.53;;;5.16;100.00
76592;BME280;65481;47.600;19.682;2024-03-08T01:26:15;100581.56;;;5.13;100.00
76592;BME280;65481;47.600;19.682;2024-03-08T01:31:16;100577.88;;;5.08;100.00
76592;BME280;65481;47.600;19.682;2024-03-08T01:36:16;100576.25;;;5.07;100.00
76592;BME280;65481;47.600;19.682;2024-03-08T01:41:19;100581.94;;;5.10;100.00
76592;BME280;65481;47.600;19.682;2024-03-08T01:46:21;100581.13;;;5.10;100.00
76592;BME280;65481;47.600;19.682;2024-03-08T01:51:22;100576.69;;;5.10;100.00
76592;BME280;65481;47.600;19.682;2024-03-08T01:56:24;100572.66;;;5.08;100.00
76592;BME280;65481;47.600;19.682;2024-03-08T02:01:25;100580.84;;;5.05;100.00
76592;BME280;65481;47.600;19.682;2024-03-08T02:06:26;100588.16;;;5.09;100.00
76592;BME280;65481;47.600;19.682;2024-03-08T02:11:26;100582.56;;;4.97;100.00
76592;BME280;65481;47.600;19.682;2024-03-08T02:16:27;100581.69;;;4.90;100.00
76592;BME280;65481;47.600;19.682;2024-03-08T02:21:28;100580.69;;;4.91;100.00
76592;BME280;65481;47.600;19.682;2024-03-08T02:26:30;100583.41;;;4.98;100.00
76592;BME280;65481;47.600;19.682;2024-03-08T02:31:31;100591.03;;;4.99;100.00
76592;BME280;65481;47.600;19.682;2024-03-08T02:36:31;100586.53;;;4.93;100.00
76592;BME280;65481;47.600;19.682;2024-03-08T02:41:35;100587.72;;;4.91;100.00
76592;BME280;65481;47.600;19.682;2024-03-08T02:46:35;100583.13;;;4.93;100.00
76592;BME280;65481;47.600;19.682;2024-03-08T02:51:36;100589.34;;;4.92;100.00
76592;BME280;65481;47.600;19.682;2024-03-08T02:56:37;100583.66;;;4.88;100.00
76592;BME280;65481;47.600;19.682;2024-03-08T03:01:37;100586.91;;;4.90;100.00
76592;BME280;65481;47.600;19.682;2024-03-08T03:06:38;100590.06;;;4.85;100.00
76592;BME280;65481;47.600;19.682;2024-03-08T03:11:39;100588.06;;;4.88;100.00
76592;BME280;65481;47.600;19.682;2024-03-08T03:16:40;100594.03;;;4.81;100.00
76592;BME280;65481;47.600;19.682;2024-03-08T03:21:40;100593.41;;;4.79;100.00
76592;BME280;65481;47.600;19.682;2024-03-08T03:26:43;100597.66;;;4.80;100.00
76592;BME280;65481;47.600;19.682;2024-03-08T03:31:43;100596.44;;;4.68;100.00
76592;BME280;65481;47.600;19.682;2024-03-08T03:36:47;100594.94;;;4.74;100.00
76592;BME280;65481;47.600;19.682;2024-03-08T03:41:49;100601.81;;;4.75;100.00
76592;BME280;65481;47.600;19.682;2024-03-08T03:46:52;100599.44;;;4.80;100.00
76592;BME280;65481;47.600;19.682;2024-03-08T03:51:52;100597.66;;;4.80;100.00
76592;BME280;65481;47.600;19.682;2024-03-08T03:56:53;100604.03;;;4.78;100.00
76592;BME280;65481;47.600;19.682;2024-03-08T04:01:53;100601.97;;;4.73;100.00
76592;BME280;65481;47.600;19.682;2024-03-08T04:06:54;100601.59;;;4.76;100.00
76592;BME280;65481;47.600;19.682;2024-03-08T04:11:55;100603.69;;;4.81;100.00
76592;BME280;65481;47.600;19.682;2024-03-08T04:16:56;100596.66;;;4.66;100.00
76592;BME280;65481;47.600;19.682;2024-03-08T04:21:57;100603.16;;;4.70;100.00
76592;BME280;65481;47.600;19.682;2024-03-08T04:26:57;100598.44;;;4.66;100.00
76592;BME280;65481;47.600;19.682;2024-03-08T04:31:59;100606.56;;;4.71;100.00
76592;BME280;65481;47.600;19.682;2024-03-08T04:37:00;100609.53;;;4.68;100.00
76592;BME280;65481;47.600;19.682;2024-03-08T04:42:02;100614.25;;;4.73;100.00
76592;BME280;65481;47.600;19.682;2024-03-08T04:47:10;100613.66;;;4.62;100.00
76592;BME280;65481;47.600;19.682;2024-03-08T04:52:11;100623.59;;;4.67;100.00
76592;BME280;65481;47.600;19.682;2024-03-08T04:57:12;100620.16;;;4.66;100.00
76592;BME280;65481;47.600;19.682;2024-03-08T05:02:13;100619.34;;;4.66;100.00
76592;BME280;65481;47.600;19.682;2024-03-08T05:07:13;100623.13;;;4.63;100.00
76592;BME280;65481;47.600;19.682;2024-03-08T05:12:13;100621.16;;;4.65;100.00
76592;BME280;65481;47.600;19.682;2024-03-08T05:17:14;100626.47;;;4.72;100.00
76592;BME280;65481;47.600;19.682;2024-03-08T05:22:14;100628.47;;;4.70;100.00
76592;BME280;65481;47.600;19.682;2024-03-08T05:27:15;100631.91;;;4.70;100.00
76592;BME280;65481;47.600;19.682;2024-03-08T05:32:16;100630.44;;;4.68;100.00
76592;BME280;65481;47.600;19.682;2024-03-08T05:37:16;100639.84;;;4.77;100.00
76592;BME280;65481;47.600;19.682;2024-03-08T05:42:17;100645.84;;;4.78;100.00
76592;BME280;65481;47.600;19.682;2024-03-08T05:47:17;100639.38;;;4.74;100.00
76592;BME280;65481;47.600;19.682;2024-03-08T05:52:19;100651.00;;;4.71;100.00
76592;BME280;65481;47.600;19.682;2024-03-08T05:57:19;100661.53;;;4.78;100.00
76592;BME280;65481;47.600;19.682;2024-03-08T06:02:19;100664.41;;;4.68;100.00
76592;BME280;65481;47.600;19.682;2024-03-08T06:07:20;100671.09;;;4.70;100.00
76592;BME280;65481;47.600;19.682;2024-03-08T06:12:20;100671.28;;;4.69;100.00
76592;BME280;65481;47.600;19.682;2024-03-08T06:17:21;100665.78;;;4.64;100.00
76592;BME280;65481;47.600;19.682;2024-03-08T06:22:25;100672.84;;;4.78;100.00
76592;BME280;65481;47.600;19.682;2024-03-08T06:27:26;100676.00;;;4.74;100.00
76592;BME280;65481;47.600;19.682;2024-03-08T06:32:26;100673.78;;;4.62;100.00
76592;BME280;65481;47.600;19.682;2024-03-08T06:37:27;100671.09;;;4.70;100.00
76592;BME280;65481;47.600;19.682;2024-03-08T06:42:27;100682.47;;;4.78;100.00
76592;BME280;65481;47.600;19.682;2024-03-08T06:47:36;100687.19;;;4.82;100.00
76592;BME280;65481;47.600;19.682;2024-03-08T06:52:36;100682.56;;;4.69;100.00
76592;BME280;65481;47.600;19.682;2024-03-08T06:57:39;100686.31;;;4.67;100.00
76592;BME280;65481;47.600;19.682;2024-03-08T07:02:41;100686.91;;;4.77;100.00
76592;BME280;65481;47.600;19.682;2024-03-08T07:07:42;100693.22;;;4.83;100.00
76592;BME280;65481;47.600;19.682;2024-03-08T07:12:43;100686.19;;;4.83;100.00
76592;BME280;65481;47.600;19.682;2024-03-08T07:17:43;100693.66;;;4.87;100.00
76592;BME280;65481;47.600;19.682;2024-03-08T07:22:48;100697.38;;;4.92;100.00
76592;BME280;65481;47.600;19.682;2024-03-08T07:27:52;100700.25;;;4.82;100.00
76592;BME280;65481;47.600;19.682;2024-03-08T07:32:53;100708.84;;;4.91;100.00
76592;BME280;65481;47.600;19.682;2024-03-08T07:37:54;100714.41;;;4.88;100.00
76592;BME280;65481;47.600;19.682;2024-03-08T07:43:00;100711.91;;;4.95;100.00
76592;BME280;65481;47.600;19.682;2024-03-08T07:48:00;100715.31;;;4.95;100.00
76592;BME280;65481;47.600;19.682;2024-03-08T07:53:01;100717.13;;;4.95;100.00
76592;BME280;65481;47.600;19.682;2024-03-08T07:58:03;100716.19;;;4.88;100.00
76592;BME280;65481;47.600;19.682;2024-03-08T08:03:04;100718.91;;;4.79;100.00
76592;BME280;65481;47.600;19.682;2024-03-08T08:08:07;100717.56;;;4.98;100.00
76592;BME280;65481;47.600;19.682;2024-03-08T08:13:08;100717.13;;;4.95;100.00
76592;BME280;65481;47.600;19.682;2024-03-08T08:18:08;100719.75;;;4.95;100.00
76592;BME280;65481;47.600;19.682;2024-03-08T08:23:10;100715.84;;;4.91;100.00
76592;BME280;65481;47.600;19.682;2024-03-08T08:28:12;100722.72;;;4.92;100.00
76592;BME280;65481;47.600;19.682;2024-03-08T08:33:12;100713.06;;;4.92;100.00
76592;BME280;65481;47.600;19.682;2024-03-08T08:38:13;100712.00;;;5.02;100.00
76592;BME280;65481;47.600;19.682;2024-03-08T08:43:15;100704.97;;;5.17;100.00
76592;BME280;65481;47.600;19.682;2024-03-08T08:48:15;100710.94;;;5.11;100.00
76592;BME280;65481;47.600;19.682;2024-03-08T08:53:16;100716.59;;;5.14;100.00
76592;BME280;65481;47.600;19.682;2024-03-08T08:58:17;100714.69;;;5.08;100.00
76592;BME280;65481;47.600;19.682;2024-03-08T09:03:18;100717.94;;;5.10;100.00
76592;BME280;65481;47.600;19.682;2024-03-08T09:08:19;100714.63;;;5.17;100.00
76592;BME280;65481;47.600;19.682;2024-03-08T09:13:20;100710.19;;;5.32;100.00
76592;BME280;65481;47.600;19.682;2024-03-08T09:18:20;100713.47;;;5.34;100.00
76592;BME280;65481;47.600;19.682;2024-03-08T09:23:21;100712.00;;;5.46;100.00
76592;BME280;65481;47.600;19.682;2024-03-08T09:28:21;100709.81;;;5.65;100.00
76592;BME280;65481;47.600;19.682;2024-03-08T09:33:22;100711.72;;;5.71;100.00
76592;BME280;65481;47.600;19.682;2024-03-08T09:38:22;100715.31;;;5.70;100.00
76592;BME280;65481;47.600;19.682;2024-03-08T09:43:23;100713.34;;;5.72;100.00
76592;BME280;65481;47.600;19.682;2024-03-08T09:48:25;100715.56;;;5.75;100.00
76592;BME280;65481;47.600;19.682;2024-03-08T09:53:26;100710.06;;;5.70;100.00
76592;BME280;65481;47.600;19.682;2024-03-08T09:58:26;100711.59;;;5.80;100.00
76592;BME280;65481;47.600;19.682;2024-03-08T10:03:33;100706.69;;;5.91;100.00
76592;BME280;65481;47.600;19.682;2024-03-08T10:08:33;100710.66;;;6.02;100.00
76592;BME280;65481;47.600;19.682;2024-03-08T10:13:34;100720.16;;;6.25;100.00
76592;BME280;65481;47.600;19.682;2024-03-08T10:18:35;100720.97;;;6.26;100.00
76592;BME280;65481;47.600;19.682;2024-03-08T10:23:36;100721.53;;;6.43;100.00
76592;BME280;65481;47.600;19.682;2024-03-08T10:28:37;100721.56;;;6.71;100.00
76592;BME280;65481;47.600;19.682;2024-03-08T10:33:38;100724.41;;;6.76;100.00
76592;BME280;65481;47.600;19.682;2024-03-08T10:38:40;100721.63;;;6.78;100.00
76592;BME280;65481;47.600;19.682;2024-03-08T10:43:57;100711.31;;;7.05;100.00
76592;BME280;65481;47.600;19.682;2024-03-08T10:49:12;100720.28;;;7.17;100.00
76592;BME280;65481;47.600;19.682;2024-03-08T10:54:20;100700.13;;;7.24;100.00
76592;BME280;65481;47.600;19.682;2024-03-08T10:59:22;100712.44;;;7.24;100.00
76592;BME280;65481;47.600;19.682;2024-03-08T11:04:24;100708.59;;;7.26;100.00
76592;BME280;65481;47.600;19.682;2024-03-08T11:09:31;100713.50;;;7.36;100.00
76592;BME280;65481;47.600;19.682;2024-03-08T11:14:48;100714.16;;;7.45;100.00
76592;BME280;65481;47.600;19.682;2024-03-08T11:19:50;100710.28;;;7.41;100.00
76592;BME280;65481;47.600;19.682;2024-03-08T11:24:52;100700.72;;;7.26;100.00
76592;BME280;65481;47.600;19.682;2024-03-08T11:30:04;100703.31;;;7.20;100.00
76592;BME280;65481;47.600;19.682;2024-03-08T11:35:22;100693.59;;;7.13;100.00
76592;BME280;65481;47.600;19.682;2024-03-08T11:40:23;100688.19;;;7.22;100.00
76592;BME280;65481;47.600;19.682;2024-03-08T11:45:23;100684.16;;;7.19;100.00
76592;BME280;65481;47.600;19.682;2024-03-08T11:50:25;100685.19;;;7.25;100.00
76592;BME280;65481;47.600;19.682;2024-03-08T11:55:26;100681.75;;;7.24;100.00
76592;BME280;65481;47.600;19.682;2024-03-08T12:00:27;100673.47;;;7.27;100.00
76592;BME280;65481;47.600;19.682;2024-03-08T12:05:33;100675.50;;;7.25;100.00
76592;BME280;65481;47.600;19.682;2024-03-08T12:10:34;100663.94;;;7.13;100.00
76592;BME280;65481;47.600;19.682;2024-03-08T12:15:35;100659.72;;;7.19;100.00
76592;BME280;65481;47.600;19.682;2024-03-08T12:20:36;100662.59;;;7.31;100.00
76592;BME280;65481;47.600;19.682;2024-03-08T12:25:36;100666.50;;;7.48;100.00
76592;BME280;65481;47.600;19.682;2024-03-08T12:30:46;100661.88;;;7.50;100.00
76592;BME280;65481;47.600;19.682;2024-03-08T12:35:54;100662.84;;;7.42;100.00
76592;BME280;65481;47.600;19.682;2024-03-08T12:40:55;100658.00;;;7.46;100.00
76592;BME280;65481;47.600;19.682;2024-03-08T12:45:57;100655.59;;;7.45;100.00
76592;BME280;65481;47.600;19.682;2024-03-08T12:50:58;100657.22;;;7.46;100.00
76592;BME280;65481;47.600;19.682;2024-03-08T12:55:58;100651.13;;;7.38;100.00
76592;BME280;65481;47.600;19.682;2024-03-08T13:00:59;100649.88;;;7.34;100.00
76592;BME280;65481;47.600;19.682;2024-03-08T13:06:00;100645.06;;;7.38;100.00
76592;BME280;65481;47.600;19.682;2024-03-08T13:11:01;100645.25;;;7.36;100.00
76592;BME280;65481;47.600;19.682;2024-03-08T13:16:03;100637.34;;;7.30;100.00
76592;BME280;65481;47.600;19.682;2024-03-08T13:21:08;100637.31;;;7.23;100.00
76592;BME280;65481;47.600;19.682;2024-03-08T13:26:11;100641.97;;;7.27;100.00
76592;BME280;65481;47.600;19.682;2024-03-08T13:31:15;100631.66;;;7.19;100.00
76592;BME280;65481;47.600;19.682;2024-03-08T13:36:15;100628.59;;;7.16;100.00
76592;BME280;65481;47.600;19.682;2024-03-08T13:41:16;100623.34;;;7.16;100.00
76592;BME280;65481;47.600;19.682;2024-03-08T13:46:17;100626.00;;;7.22;100.00
76592;BME280;65481;47.600;19.682;2024-03-08T13:51:18;100623.84;;;7.33;100.00
76592;BME280;65481;47.600;19.682;2024-03-08T13:56:18;100616.78;;;7.40;100.00
76592;BME280;65481;47.600;19.682;2024-03-08T14:01:18;100616.59;;;7.35;100.00
76592;BME280;65481;47.600;19.682;2024-03-08T14:06:20;100607.09;;;7.40;100.00
76592;BME280;65481;47.600;19.682;2024-03-08T14:11:24;100614.78;;;7.49;100.00
76592;BME280;65481;47.600;19.682;2024-03-08T14:16:25;100617.47;;;7.55;100.00
76592;BME280;65481;47.600;19.682;2024-03-08T14:21:26;100611.97;;;7.50;100.00
76592;BME280;65481;47.600;19.682;2024-03-08T14:26:26;100604.72;;;7.52;100.00
76592;BME280;65481;47.600;19.682;2024-03-08T14:31:27;100614.59;;;7.50;100.00
76592;BME280;65481;47.600;19.682;2024-03-08T14:36:28;100610.97;;;7.51;100.00
76592;BME280;65481;47.600;19.682;2024-03-08T14:41:29;100601.09;;;7.67;100.00
76592;BME280;65481;47.600;19.682;2024-03-08T14:46:30;100597.50;;;7.81;100.00
76592;BME280;65481;47.600;19.682;2024-03-08T14:51:31;100591.84;;;7.98;100.00
76592;BME280;65481;47.600;19.682;2024-03-08T14:56:33;100588.63;;;8.09;100.00
76592;BME280;65481;47.600;19.682;2024-03-08T15:01:33;100588.03;;;8.07;100.00
76592;BME280;65481;47.600;19.682;2024-03-08T15:06:37;100588.22;;;7.99;100.00
76592;BME280;65481;47.600;19.682;2024-03-08T15:11:38;100586.00;;;8.02;100.00
76592;BME280;65481;47.600;19.682;2024-03-08T15:16:43;100583.78;;;8.06;100.00
76592;BME280;65481;47.600;19.682;2024-03-08T15:21:46;100579.13;;;8.01;100.00
76592;BME280;65481;47.600;19.682;2024-03-08T15:26:48;100585.19;;;7.95;100.00
76592;BME280;65481;47.600;19.682;2024-03-08T15:31:51;100583.13;;;7.77;100.00
76592;BME280;65481;47.600;19.682;2024-03-08T15:36:54;100585.72;;;7.57;100.00
76592;BME280;65481;47.600;19.682;2024-03-08T15:41:54;100588.94;;;7.39;100.00
76592;BME280;65481;47.600;19.682;2024-03-08T15:46:55;100585.00;;;7.21;100.00
76592;BME280;65481;47.600;19.682;2024-03-08T15:51:56;100585.44;;;7.18;100.00
76592;BME280;65481;47.600;19.682;2024-03-08T15:56:56;100584.81;;;7.16;100.00
76592;BME280;65481;47.600;19.682;2024-03-08T16:01:58;100580.97;;;7.12;100.00
76592;BME280;65481;47.600;19.682;2024-03-08T16:06:58;100584.56;;;7.04;100.00
76592;BME280;65481;47.600;19.682;2024-03-08T16:11:59;100588.41;;;7.02;100.00
76592;BME280;65481;47.600;19.682;2024-03-08T16:16:59;100584.75;;;7.03;100.00
76592;BME280;65481;47.600;19.682;2024-03-08T16:22:01;100585.72;;;6.95;100.00
76592;BME280;65481;47.600;19.682;2024-03-08T16:27:01;100580.09;;;6.98;100.00
76592;BME280;65481;47.600;19.682;2024-03-08T16:32:02;100588.97;;;6.97;100.00
76592;BME280;65481;47.600;19.682;2024-03-08T16:37:04;100588.53;;;6.93;100.00
76592;BME280;65481;47.600;19.682;2024-03-08T16:42:04;100582.91;;;6.96;100.00
76592;BME280;65481;47.600;19.682;2024-03-08T16:47:07;100582.06;;;6.89;100.00
76592;BME280;65481;47.600;19.682;2024-03-08T16:52:08;100580.81;;;6.85;100.00
76592;BME280;65481;47.600;19.682;2024-03-08T16:57:08;100578.81;;;6.87;100.00
76592;BME280;65481;47.600;19.682;2024-03-08T17:02:14;100582.66;;;6.85;100.00
76592;BME280;65481;47.600;19.682;2024-03-08T17:07:14;100584.47;;;6.84;100.00
76592;BME280;65481;47.600;19.682;2024-03-08T17:12:15;100583.66;;;6.84;100.00
76592;BME280;65481;47.600;19.682;2024-03-08T17:17:19;100588.28;;;6.81;100.00
76592;BME280;65481;47.600;19.682;2024-03-08T17:22:20;100591.94;;;6.87;100.00
76592;BME280;65481;47.600;19.682;2024-03-08T17:27:21;100593.09;;;6.78;100.00
76592;BME280;65481;47.600;19.682;2024-03-08T17:32:24;100593.50;;;6.75;100.00
76592;BME280;65481;47.600;19.682;2024-03-08T17:37:25;100592.06;;;6.72;100.00
76592;BME280;65481;47.600;19.682;2024-03-08T17:42:25;100594.25;;;6.69;100.00
76592;BME280;65481;47.600;19.682;2024-03-08T17:47:26;100591.63;;;6.69;100.00
76592;BME280;65481;47.600;19.682;2024-03-08T17:52:27;100588.00;;;6.70;100.00
76592;BME280;65481;47.600;19.682;2024-03-08T17:57:27;100589.00;;;6.69;100.00
76592;BME280;65481;47.600;19.682;2024-03-08T18:02:27;100588.00;;;6.70;100.00
76592;BME280;65481;47.600;19.682;2024-03-08T18:07:28;100580.13;;;6.70;100.00
76592;BME280;65481;47.600;19.682;2024-03-08T18:12:29;100589.63;;;6.71;100.00
76592;BME280;65481;47.600;19.682;2024-03-08T18:17:30;100585.19;;;6.64;100.00
76592;BME280;65481;47.600;19.682;2024-03-08T18:22:31;100589.56;;;6.57;100.00
76592;BME280;65481;47.600;19.682;2024-03-08T18:27:33;100588.09;;;6.48;100.00
76592;BME280;65481;47.600;19.682;2024-03-08T18:32:33;100590.88;;;6.46;100.00
76592;BME280;65481;47.600;19.682;2024-03-08T18:37:34;100584.69;;;6.54;100.00
76592;BME280;65481;47.600;19.682;2024-03-08T18:42:35;100579.19;;;6.49;100.00
76592;BME280;65481;47.600;19.682;2024-03-08T18:47:36;100582.41;;;6.44;100.00
76592;BME280;65481;47.600;19.682;2024-03-08T18:52:36;100583.59;;;6.42;100.00
76592;BME280;65481;47.600;19.682;2024-03-08T18:57:38;100589.22;;;6.39;100.00
76592;BME280;65481;47.600;19.682;2024-03-08T19:02:41;100586.56;;;6.32;100.00
76592;BME280;65481;47.600;19.682;2024-03-08T19:07:43;100585.72;;;6.31;100.00
76592;BME280;65481;47.600;19.682;2024-03-08T19:12:54;100587.56;;;6.31;100.00
76592;BME280;65481;47.600;19.682;2024-03-08T19:17:56;100582.69;;;6.28;100.00
76592;BME280;65481;47.600;19.682;2024-03-08T19:22:57;100588.13;;;6.26;100.00
76592;BME280;65481;47.600;19.682;2024-03-08T19:28:04;100587.31;;;6.26;100.00
76592;BME280;65481;47.600;19.682;2024-03-08T19:33:06;100578.88;;;6.30;100.00
76592;BME280;65481;47.600;19.682;2024-03-08T19:38:11;100581.06;;;6.27;100.00
76592;BME280;65481;47.600;19.682;2024-03-08T19:43:12;100581.50;;;6.30;100.00
76592;BME280;65481;47.600;19.682;2024-03-08T19:48:15;100582.06;;;6.26;100.00
76592;BME280;65481;47.600;19.682;2024-03-08T19:53:20;100587.84;;;6.14;100.00
76592;BME280;65481;47.600;19.682;2024-03-08T19:58:22;100586.63;;;6.17;100.00
76592;BME280;65481;47.600;19.682;2024-03-08T20:03:23;100587.47;;;6.17;100.00
76592;BME280;65481;47.600;19.682;2024-03-08T20:08:24;100583.22;;;6.16;100.00
76592;BME280;65481;47.600;19.682;2024-03-08T20:13:28;100589.41;;;6.09;100.00
76592;BME280;65481;47.600;19.682;2024-03-08T20:18:28;100588.59;;;6.08;100.00
76592;BME280;65481;47.600;19.682;2024-03-08T20:23:29;100580.03;;;5.99;100.00
76592;BME280;65481;47.600;19.682;2024-03-08T20:28:30;100577.47;;;6.06;100.00
76592;BME280;65481;47.600;19.682;2024-03-08T20:33:32;100581.72;;;6.07;100.00
76592;BME280;65481;47.600;19.682;2024-03-08T20:38:33;100579.47;;;6.04;100.00
76592;BME280;65481;47.600;19.682;2024-03-08T20:43:36;100579.31;;;6.05;100.00
76592;BME280;65481;47.600;19.682;2024-03-08T20:48:37;100573.97;;;5.99;100.00
76592;BME280;65481;47.600;19.682;2024-03-08T20:53:40;100571.91;;;5.94;100.00
76592;BME280;65481;47.600;19.682;2024-03-08T20:58:41;100575.72;;;5.91;100.00
76592;BME280;65481;47.600;19.682;2024-03-08T21:03:41;100566.06;;;5.92;100.00
76592;BME280;65481;47.600;19.682;2024-03-08T21:08:42;100558.22;;;5.92;100.00
76592;BME280;65481;47.600;19.682;2024-03-08T21:13:42;100556.59;;;5.91;100.00
76592;BME280;65481;47.600;19.682;2024-03-08T21:18:42;100554.34;;;5.88;100.00
76592;BME280;65481;47.600;19.682;2024-03-08T21:23:43;100546.53;;;5.95;100.00
76592;BME280;65481;47.600;19.682;2024-03-08T21:28:43;100545.28;;;5.90;100.00
76592;BME280;65481;47.600;19.682;2024-03-08T21:33:44;100546.75;;;5.93;100.00
76592;BME280;65481;47.600;19.682;2024-03-08T21:38:44;100540.47;;;5.94;100.00
76592;BME280;65481;47.600;19.682;2024-03-08T21:43:45;100552.34;;;5.90;100.00
76592;BME280;65481;47.600;19.682;2024-03-08T21:48:45;100534.25;;;5.95;100.00
76592;BME280;65481;47.600;19.682;2024-03-08T21:53:47;100542.66;;;5.90;100.00
76592;BME280;65481;47.600;19.682;2024-03-08T21:58:48;100541.25;;;5.88;100.00
76592;BME280;65481;47.600;19.682;2024-03-08T22:03:48;100539.25;;;5.90;100.00
76592;BME280;65481;47.600;19.682;2024-03-08T22:08:49;100534.56;;;5.85;100.00
76592;BME280;65481;47.600;19.682;2024-03-08T22:13:50;100533.97;;;5.83;100.00
76592;BME280;65481;47.600;19.682;2024-03-08T22:18:50;100529.09;;;5.80;100.00
76592;BME280;65481;47.600;19.682;2024-03-08T22:23:53;100528.28;;;5.80;100.00
76592;BME280;65481;47.600;19.682;2024-03-08T22:28:56;100530.53;;;5.83;100.00
76592;BME280;65481;47.600;19.682;2024-03-08T22:33:57;100529.91;;;5.81;100.00
76592;BME280;65481;47.600;19.682;2024-03-08T22:38:57;100525.44;;;5.74;100.00
76592;BME280;65481;47.600;19.682;2024-03-08T22:43:58;100524.88;;;5.79;100.00
76592;BME280;65481;47.600;19.682;2024-03-08T22:48:58;100526.66;;;5.79;100.00
76592;BME280;65481;47.600;19.682;2024-03-08T22:53:59;100521.03;;;5.82;100.00
76592;BME280;65481;47.600;19.682;2024-03-08T22:59:00;100517.22;;;5.84;100.00
76592;BME280;65481;47.600;19.682;2024-03-08T23:04:02;100515.22;;;5.86;100.00
76592;BME280;65481;47.600;19.682;2024-03-08T23:09:02;100513.44;;;5.87;100.00
76592;BME280;65481;47.600;19.682;2024-03-08T23:14:04;100517.31;;;5.91;100.00
76592;BME280;65481;47.600;19.682;2024-03-08T23:19:06;100510.81;;;5.87;100.00
76592;BME280;65481;47.600;19.682;2024-03-08T23:24:07;100515.06;;;5.88;100.00
76592;BME280;65481;47.600;19.682;2024-03-08T23:29:11;100521.00;;;5.75;100.00
76592;BME280;65481;47.600;19.682;2024-03-08T23:34:11;100516.75;;;5.74;100.00
76592;BME280;65481;47.600;19.682;2024-03-08T23:39:12;100527.22;;;5.74;100.00
76592;BME280;65481;47.600;19.682;2024-03-08T23:44:13;100521.19;;;5.73;100.00
76592;BME280;65481;47.600;19.682;2024-03-08T23:49:14;100521.78;;;5.75;100.00
76592;BME280;65481;47.600;19.682;2024-03-08T23:54:17;100519.31;;;5.67;100.00
76592;BME280;65481;47.600;19.682;2024-03-08T23:59:22;100519.13;;;5.69;100.00
